Time;durP1;ratioP1;P1;durP2;ratioP2;P2;SDS_P1;SDS_P2;PMS_P1;PMS_P2;Temp;Humidity;BMP_temperature;BMP_pressure;BME280_temperature;BME280_humidity;BME280_pressure;Samples;Min_cycle;Max_cycle;Signal;HPM_P1;HPM_P2
2021/04/26 00:00:34;;;;;;;2.95;1.25;;;;;;;;;;10102992;28;20054;-64
2021/04/26 00:05:36;;;;;;;13.80;1.35;;;;;;;;;;10108123;28;20050;-65
2021/04/26 00:10:38;;;;;;;4.38;1.20;;;3.30;95.00;;;;;;10107407;28;20627;-64
2021/04/26 00:15:39;;;;;;;1.55;0.90;;;3.20;95.10;;;;;;10107182;28;20071;-64
2021/04/26 00:20:41;;;;;;;4.63;0.90;;;3.30;91.90;;;;;;10108061;28;20054;-64
2021/04/26 00:25:44;;;;;;;4.63;1.10;;;3.20;95.40;;;;;;10105683;28;20055;-64
2021/04/26 00:30:45;;;;;;;3.35;1.42;;;3.30;92.20;;;;;;10106321;28;21257;-63
2021/04/26 00:35:47;;;;;;;4.40;1.48;;;;;;;;;;10104904;28;20186;-64
2021/04/26 00:40:49;;;;;;;7.40;2.47;;;3.20;92.60;;;;;;10103645;28;21750;-64
2021/04/26 00:45:51;;;;;;;6.15;1.23;;;;;;;;;;10104909;28;20533;-64
2021/04/26 00:50:52;;;;;;;6.10;1.33;;;;;;;;;;10100956;28;21477;-65
2021/04/26 00:55:55;;;;;;;6.13;1.35;;;3.10;92.90;;;;;;10104545;28;20105;-64
2021/04/26 01:00:56;;;;;;;4.55;1.23;;;;;;;;;;10103762;28;20496;-64
2021/04/26 01:05:58;;;;;;;5.57;1.30;;;;;;;;;;10102619;28;20054;-64
2021/04/26 01:11:00;;;;;;;5.15;1.30;;;2.90;93.40;;;;;;10101137;28;21146;-64
2021/04/26 01:16:10;;;;;;;3.73;1.27;;;2.90;93.50;;;;;;10099706;28;20722;-64
2021/04/26 01:21:44;;;;;;;6.60;1.55;;;2.80;93.60;;;;;;10103173;28;20106;-63
2021/04/26 01:27:02;;;;;;;4.05;2.10;;;2.70;93.70;;;;;;10095062;28;20058;-64
2021/04/26 01:32:22;;;;;;;12.93;2.10;;;2.70;94.10;;;;;;10105962;28;21704;-64
2021/04/26 01:37:25;;;;;;;5.95;1.33;;;2.70;94.20;;;;;;10109714;28;20059;-64
2021/04/26 01:42:28;;;;;;;5.05;1.30;;;2.70;94.10;;;;;;10109574;28;20483;-65
2021/04/26 01:47:31;;;;;;;6.78;1.60;;;2.70;94.40;;;;;;10109714;28;20062;-65
2021/04/26 01:52:34;;;;;;;1.23;1.13;;;2.60;94.40;;;;;;10109749;28;21735;-64
2021/04/26 01:57:36;;;;;;;5.50;1.37;;;2.70;94.60;;;;;;10108462;28;20769;-64
2021/04/26 02:02:41;;;;;;;2.80;1.30;;;2.70;94.70;;;;;;10108392;28;20485;-64
2021/04/26 02:07:44;;;;;;;2.00;1.17;;;2.70;94.80;;;;;;10105489;28;20692;-64
2021/04/26 02:12:46;;;;;;;11.63;1.75;;;;;;;;;;10106774;28;20208;-64
2021/04/26 02:17:50;;;;;;;5.90;1.58;;;2.70;95.10;;;;;;10109248;28;20054;-64
2021/04/26 02:22:53;;;;;;;8.43;1.98;;;2.60;95.20;;;;;;10109559;28;20047;-65
2021/04/26 02:27:54;;;;;;;5.70;1.42;;;;;;;;;;10104718;28;20129;-64
2021/04/26 02:33:03;;;;;;;2.50;1.47;;;2.30;95.20;;;;;;10103121;28;20541;-64
2021/04/26 02:38:08;;;;;;;11.70;1.60;;;2.50;95.60;;;;;;10106934;28;20050;-64
2021/04/26 02:43:10;;;;;;;2.92;1.60;;;2.50;95.70;;;;;;10106590;28;20051;-64
2021/04/26 02:48:12;;;;;;;5.10;2.00;;;2.40;95.80;;;;;;10108100;28;20047;-64
2021/04/26 02:53:15;;;;;;;6.87;1.97;;;2.50;96.10;;;;;;10108778;28;20914;-64
2021/04/26 02:58:18;;;;;;;6.68;1.70;;;2.50;96.10;;;;;;10105072;28;20090;-64
2021/04/26 03:03:21;;;;;;;7.28;1.92;;;2.40;96.00;;;;;;10106733;28;20047;-65
2021/04/26 03:08:22;;;;;;;5.75;1.55;;;;;;;;;;10102888;28;22067;-65
2021/04/26 03:13:27;;;;;;;9.57;1.83;;;3.10;96.50;;;;;;10101369;28;21658;-64
2021/04/26 03:18:29;;;;;;;4.73;1.80;;;2.30;96.50;;;;;;10102954;28;20091;-64
2021/04/26 03:23:31;;;;;;;4.97;1.85;;;;;;;;;;10102623;28;20095;-64
2021/04/26 03:28:34;;;;;;;10.30;1.77;;;2.30;97.00;;;;;;10101614;28;20780;-64
2021/04/26 03:33:37;;;;;;;4.00;1.50;;;2.20;96.90;;;;;;10104292;28;20126;-64
2021/04/26 03:38:39;;;;;;;10.57;2.05;;;2.20;97.20;;;;;;10102436;28;20051;-64
2021/04/26 03:43:43;;;;;;;1.77;1.40;;;2.20;97.20;;;;;;10104629;28;21593;-64
2021/04/26 03:48:45;;;;;;;7.15;1.75;;;2.10;97.00;;;;;;10103564;28;20774;-64
2021/04/26 03:53:47;;;;;;;19.13;2.23;;;;;;;;;;10102942;28;20069;-64
2021/04/26 03:58:48;;;;;;;7.28;2.03;;;;;;;;;;10105023;28;20058;-65
2021/04/26 04:03:50;;;;;;;4.75;2.13;;;1.80;97.50;;;;;;10101630;28;20106;-64
2021/04/26 04:08:52;;;;;;;5.78;2.08;;;1.80;97.80;;;;;;10103602;28;20800;-65
2021/04/26 04:13:54;;;;;;;4.30;2.00;;;;;;;;;;10103288;28;20078;-65
2021/04/26 04:18:57;;;;;;;3.22;2.00;;;1.90;98.00;;;;;;10105051;28;20799;-65
2021/04/26 04:23:58;;;;;;;5.03;2.00;;;;;;;;;;10103719;28;20106;-65
2021/04/26 04:29:00;;;;;;;7.30;1.95;;;;;;;;;;10101970;28;21788;-65
2021/04/26 04:34:02;;;;;;;4.00;1.98;;;1.80;98.00;;;;;;10103626;28;20067;-65
2021/04/26 04:39:04;;;;;;;5.00;1.43;;;2.10;98.20;;;;;;10102720;28;20101;-64
2021/04/26 04:44:06;;;;;;;3.30;2.47;;;2.20;98.20;;;;;;10100503;28;20055;-65
2021/04/26 04:49:08;;;;;;;4.38;2.20;;;2.30;98.00;;;;;;10101186;28;20045;-65
2021/04/26 04:54:10;;;;;;;2.23;2.00;;;;;;;;;;10101531;28;20699;-65
2021/04/26 04:59:12;;;;;;;5.60;2.30;;;;;;;;;;10100010;28;20051;-65
2021/04/26 05:04:14;;;;;;;11.20;2.97;;;3.30;98.00;;;;;;10105015;28;20110;-65
2021/04/26 05:09:17;;;;;;;5.43;1.67;;;4.30;96.80;;;;;;10110394;28;20168;-65
2021/04/26 05:14:18;;;;;;;10.73;2.05;;;6.40;95.90;;;;;;10109262;28;21643;-65
2021/04/26 05:19:20;;;;;;;4.57;1.90;;;8.90;90.60;;;;;;10103402;28;20412;-65
2021/04/26 05:24:22;;;;;;;6.68;1.52;;;;;;;;;;10107121;28;20760;-65
2021/04/26 05:29:23;;;;;;;7.25;1.50;;;13.00;71.90;;;;;;10107040;28;21608;-66
2021/04/26 05:34:26;;;;;;;6.97;2.60;;;13.70;65.60;;;;;;10105751;28;20097;-65
2021/04/26 05:39:27;;;;;;;9.80;1.43;;;15.10;60.90;;;;;;10106663;28;20066;-66
2021/04/26 05:44:28;;;;;;;5.82;1.85;;;15.70;56.90;;;;;;10098837;28;20062;-66
2021/04/26 05:49:30;;;;;;;6.72;1.30;;;16.90;48.40;;;;;;10102836;28;20095;-65
2021/04/26 05:54:32;;;;;;;4.95;1.50;;;17.60;50.20;;;;;;10105098;28;21606;-65
2021/04/26 05:59:33;;;;;;;6.63;1.67;;;18.30;47.40;;;;;;10104694;28;20116;-65
2021/04/26 06:04:35;;;;;;;4.53;1.83;;;19.90;45.20;;;;;;10105865;28;20051;-66
2021/04/26 06:09:37;;;;;;;6.40;1.33;;;20.10;42.70;;;;;;10103975;28;20152;-64
2021/04/26 06:14:38;;;;;;;5.53;1.60;;;20.20;38.70;;;;;;10105188;28;20051;-63
2021/04/26 06:19:40;;;;;;;6.47;1.70;;;20.90;39.10;;;;;;10102156;28;20082;-64
2021/04/26 06:24:41;;;;;;;5.30;1.60;;;20.80;35.70;;;;;;10101923;28;20051;-66
2021/04/26 06:29:43;;;;;;;5.97;2.47;;;21.10;34.70;;;;;;10103004;28;20971;-64
2021/04/26 06:34:45;;;;;;;5.27;1.23;;;21.50;33.70;;;;;;10105136;28;20059;-63
2021/04/26 06:39:46;;;;;;;7.20;1.42;;;22.10;35.80;;;;;;10104954;28;20201;-64
2021/04/26 06:44:48;;;;;;;4.63;1.30;;;22.70;34.80;;;;;;10101638;28;20771;-66
2021/04/26 06:49:50;;;;;;;7.70;1.70;;;22.00;33.50;;;;;;10104075;28;20620;-66
2021/04/26 06:54:51;;;;;;;8.73;1.30;;;23.00;32.90;;;;;;10101244;28;20489;-64
2021/04/26 06:59:53;;;;;;;8.43;1.40;;;23.00;30.00;;;;;;10100243;28;20153;-65
2021/04/26 07:04:55;;;;;;;5.20;1.10;;;23.20;29.50;;;;;;10098613;28;21627;-65
2021/04/26 07:09:56;;;;;;;7.60;1.33;;;23.30;29.40;;;;;;10100309;28;20142;-65
2021/04/26 07:14:58;;;;;;;5.88;1.25;;;23.50;30.20;;;;;;10101412;28;20069;-67
2021/04/26 07:20:00;;;;;;;6.70;1.30;;;23.70;28.30;;;;;;10100189;28;20084;-67
2021/04/26 07:25:03;;;;;;;5.95;1.75;;;23.90;28.10;;;;;;10097677;28;20058;-67
2021/04/26 07:30:06;;;;;;;4.65;1.30;;;24.10;29.00;;;;;;10095531;28;20456;-61
2021/04/26 07:35:11;;;;;;;5.82;1.27;;;24.30;27.20;;;;;;10096554;28;20047;-62
2021/04/26 07:40:14;;;;;;;6.80;1.70;;;24.50;26.90;;;;;;10103328;28;20047;-64
2021/04/26 07:45:19;;;;;;;9.23;1.50;;;24.50;27.30;;;;;;10101491;28;21201;-66
2021/04/26 07:50:22;;;;;;;6.68;1.60;;;25.10;26.70;;;;;;10101212;28;20569;-67
2021/04/26 07:55:24;;;;;;;4.88;1.30;;;25.30;28.00;;;;;;10101226;28;20787;-67
2021/04/26 08:00:25;;;;;;;5.43;1.52;;;25.20;26.20;;;;;;10102379;28;20071;-63
2021/04/26 08:05:28;;;;;;;6.63;1.30;;;25.30;26.40;;;;;;10104370;28;22325;-65
2021/04/26 08:10:29;;;;;;;7.22;1.50;;;26.20;26.10;;;;;;10096848;28;20062;-66
2021/04/26 08:15:31;;;;;;;5.75;1.30;;;26.00;25.60;;;;;;10100002;28;20844;-64
2021/04/26 08:20:35;;;;;;;3.10;1.40;;;26.00;25.80;;;;;;10100337;28;20805;-68
2021/04/26 08:25:37;;;;;;;8.93;1.17;;;26.10;25.30;;;;;;10099023;28;20073;-64
2021/04/26 08:30:39;;;;;;;6.38;1.30;;;26.60;25.10;;;;;;10097027;28;20067;-65
2021/04/26 08:35:42;;;;;;;8.27;2.10;;;26.80;25.40;;;;;;10099583;28;20541;-65
2021/04/26 08:40:43;;;;;;;5.32;1.30;;;28.10;25.20;;;;;;10096635;28;20043;-66
2021/04/26 08:45:45;;;;;;;2.13;1.10;;;27.50;24.20;;;;;;10096743;28;20161;-65
2021/04/26 08:50:47;;;;;;;4.63;1.77;;;27.50;24.20;;;;;;10094833;28;21160;-64
2021/04/26 08:55:48;;;;;;;5.40;1.23;;;26.90;23.60;;;;;;10093040;28;20727;-64
2021/04/26 09:00:49;;;;;;;3.88;1.30;;;27.30;24.20;;;;;;10096698;28;20138;-64
2021/04/26 09:05:53;;;;;;;3.72;1.45;;;27.20;23.50;;;;;;10092904;28;20054;-65
2021/04/26 09:11:00;;;;;;;5.88;1.58;;;27.00;23.80;;;;;;10097852;28;20051;-63
2021/04/26 09:16:04;;;;;;;4.70;1.92;;;27.20;24.10;;;;;;10098383;28;21453;-64
2021/04/26 09:21:13;;;;;;;5.93;1.40;;;27.50;24.40;;;;;;10095894;28;20063;-63
2021/04/26 09:26:26;;;;;;;6.93;1.67;;;27.80;23.70;;;;;;10096797;28;20173;-65
2021/04/26 09:31:27;;;;;;;2.95;1.30;;;27.20;24.00;;;;;;10096125;28;20113;-63
2021/04/26 09:36:31;;;;;;;6.13;1.60;;;26.80;24.50;;;;;;10090861;28;20062;-63
2021/04/26 09:41:34;;;;;;;5.85;1.52;;;26.80;24.00;;;;;;10097421;28;20198;-65
2021/04/26 09:46:40;;;;;;;4.80;1.67;;;27.70;24.50;;;;;;10094907;28;20713;-65
2021/04/26 09:51:44;;;;;;;4.50;1.33;;;27.50;24.20;;;;;;10097205;28;20140;-64
2021/04/26 09:56:46;;;;;;;2.33;1.23;;;28.60;23.80;;;;;;10097903;28;21565;-64
2021/04/26 10:01:48;;;;;;;4.53;1.48;;;28.10;23.40;;;;;;10102530;28;20058;-64
2021/04/26 10:06:50;;;;;;;5.78;2.55;;;27.40;23.40;;;;;;10100736;28;20611;-62
2021/04/26 10:11:51;;;;;;;7.63;1.70;;;26.10;24.10;;;;;;10098942;28;20273;-66
2021/04/26 10:16:59;;;;;;;5.07;1.00;;;25.80;24.30;;;;;;10100583;28;20089;-64
2021/04/26 10:22:03;;;;;;;6.63;1.90;;;26.00;24.60;;;;;;10102209;28;20059;-67
2021/04/26 10:27:07;;;;;;;4.03;1.55;;;26.60;24.60;;;;;;10106966;28;20138;-64
2021/04/26 10:32:14;;;;;;;7.03;2.13;;;26.20;24.10;;;;;;10099685;28;20061;-65
2021/04/26 10:37:22;;;;;;;4.60;1.80;;;26.30;24.20;;;;;;10099017;28;21506;-63
2021/04/26 10:42:30;;;;;;;5.53;1.13;;;25.60;24.30;;;;;;10098332;28;21176;-65
2021/04/26 10:47:37;;;;;;;3.22;1.17;;;24.60;25.50;;;;;;10100392;28;20093;-65
2021/04/26 10:52:40;;;;;;;7.88;1.52;;;25.10;25.70;;;;;;10100575;28;21719;-64
2021/04/26 10:57:45;;;;;;;6.28;1.50;;;22.10;29.30;;;;;;10100814;28;21130;-64
2021/04/26 11:02:47;;;;;;;4.70;1.38;;;21.90;28.80;;;;;;10095802;28;20058;-64
2021/04/26 11:07:52;;;;;;;4.78;1.23;;;21.90;28.90;;;;;;10096253;28;20051;-65
2021/04/26 11:12:54;;;;;;;4.38;1.50;;;21.50;30.50;;;;;;10096899;28;20490;-64
2021/04/26 11:17:56;;;;;;;9.35;1.73;;;21.30;29.80;;;;;;10097681;28;20558;-64
2021/04/26 11:22:59;;;;;;;4.10;1.60;;;21.30;30.60;;;;;;10098063;28;20070;-64
2021/04/26 11:28:01;;;;;;;3.83;1.52;;;21.20;30.00;;;;;;10097212;28;20066;-64
2021/04/26 11:33:19;;;;;;;4.15;1.50;;;21.00;30.90;;;;;;10099697;28;20746;-66
2021/04/26 11:38:22;;;;;;;8.23;1.90;;;21.00;31.60;;;;;;10098719;28;21040;-67
2021/04/26 11:43:24;;;;;;;6.95;2.08;;;20.60;31.30;;;;;;10093627;28;20054;-64
2021/04/26 11:48:29;;;;;;;8.65;2.22;;;20.40;32.10;;;;;;10095930;28;22098;-67
2021/04/26 11:53:33;;;;;;;12.88;2.08;;;19.70;32.40;;;;;;10096455;28;20051;-65
2021/04/26 11:58:34;;;;;;;7.93;2.10;;;19.90;33.20;;;;;;10095257;28;20055;-63
2021/04/26 12:03:52;;;;;;;4.72;1.45;;;19.10;33.20;;;;;;10096628;28;20375;-72
2021/04/26 12:08:55;;;;;;;8.52;2.03;;;19.30;31.80;;;;;;10093840;28;20169;-64
2021/04/26 12:14:10;;;;;;;5.25;1.40;;;19.20;32.60;;;;;;10096913;28;20046;-64
2021/04/26 12:19:11;;;;;;;7.20;1.67;;;18.80;32.60;;;;;;10097406;28;20062;-64
2021/04/26 12:24:14;;;;;;;4.90;2.03;;;18.70;33.70;;;;;;10101654;28;20062;-62
2021/04/26 12:29:25;;;;;;;6.65;2.60;;;18.10;35.80;;;;;;10096765;28;20106;-63
2021/04/26 12:34:26;;;;;;;8.02;2.03;;;18.20;33.70;;;;;;10100941;28;20145;-64
2021/04/26 12:39:28;;;;;;;3.57;1.40;;;18.00;34.80;;;;;;10092253;28;20534;-65
2021/04/26 12:44:29;;;;;;;;;;;17.80;35.10;;;;;;10098194;28;20059;-62
2021/04/26 12:49:31;;;;;;;10.20;1.98;;;;;;;;;;10096257;28;19930;-65
2021/04/26 12:54:33;;;;;;;5.85;1.50;;;17.80;35.80;;;;;;10095665;28;20194;-64
2021/04/26 12:59:44;;;;;;;;;;;17.50;36.80;;;;;;10099858;28;21353;-67
2021/04/26 13:04:45;;;;;;;9.95;1.70;;;17.30;37.20;;;;;;10098949;28;20321;-65
2021/04/26 13:10:04;;;;;;;13.20;1.97;;;16.90;39.10;;;;;;10100132;28;20074;-64
2021/04/26 13:15:23;;;;;;;8.75;1.40;;;16.60;43.10;;;;;;10101301;28;20043;-64
2021/04/26 13:20:26;;;;;;;5.93;1.95;;;16.20;42.40;;;;;;10097936;28;20059;-64
2021/04/26 13:25:32;;;;;;;5.60;1.58;;;16.30;42.60;;;;;;10100135;28;20100;-65
2021/04/26 13:30:33;;;;;;;10.75;1.95;;;16.10;43.80;;;;;;10104062;28;20047;-68
2021/04/26 13:35:36;;;;;;;6.05;1.88;;;15.90;40.90;;;;;;10105621;28;20058;-64
2021/04/26 13:40:38;;;;;;;4.80;1.70;;;16.10;43.10;;;;;;10104498;28;20108;-63
2021/04/26 13:45:39;;;;;;;10.60;1.67;;;;;;;;;;10101035;28;20073;-65
2021/04/26 13:50:49;;;;;;;11.20;2.13;;;16.00;43.70;;;;;;10102829;28;21461;-64
2021/04/26 13:55:51;;;;;;;11.93;1.50;;;15.70;40.70;;;;;;10100769;28;20054;-63
2021/04/26 14:00:52;;;;;;;9.32;2.10;;;15.30;43.40;;;;;;10104927;28;20495;-64
2021/04/26 14:05:54;;;;;;;10.75;1.92;;;14.80;46.50;;;;;;10102230;28;20046;-64
2021/04/26 14:10:56;;;;;;;15.45;2.63;;;15.20;47.70;;;;;;10102830;28;20055;-64
2021/04/26 14:15:58;;;;;;;34.30;2.10;;;14.90;44.50;;;;;;10102251;28;20970;-63
2021/04/26 14:21:00;;;;;;;8.30;1.50;;;14.90;45.60;;;;;;10106116;28;20930;-62
2021/04/26 14:26:02;;;;;;;10.33;1.90;;;14.90;45.60;;;;;;10101138;28;20989;-64
2021/04/26 14:31:04;;;;;;;16.73;1.80;;;14.80;44.80;;;;;;10102227;28;20047;-64
2021/04/26 14:36:05;;;;;;;10.48;1.40;;;14.50;46.70;;;;;;10100279;28;20151;-62
2021/04/26 14:41:07;;;;;;;8.43;1.65;;;14.20;48.00;;;;;;10103280;28;20079;-63
2021/04/26 14:46:09;;;;;;;9.98;1.80;;;14.20;47.50;;;;;;10103354;28;20059;-62
2021/04/26 14:51:10;;;;;;;8.95;1.60;;;14.10;49.00;;;;;;10103729;28;20519;-63
2021/04/26 14:56:13;;;;;;;7.38;1.85;;;14.00;49.30;;;;;;10101775;28;20227;-63
2021/04/26 15:01:16;;;;;;;13.38;2.00;;;13.90;52.70;;;;;;10099943;28;20051;-63
2021/04/26 15:06:17;;;;;;;8.65;2.00;;;13.60;51.90;;;;;;10100015;28;20621;-63
2021/04/26 15:11:20;;;;;;;7.07;1.92;;;13.40;54.50;;;;;;10102784;28;20193;-62
2021/04/26 15:16:22;;;;;;;7.38;1.65;;;12.70;54.30;;;;;;10102651;28;20054;-62
2021/04/26 15:21:23;;;;;;;8.53;1.80;;;12.80;56.40;;;;;;10100558;28;20050;-63
2021/04/26 15:26:26;;;;;;;11.50;2.20;;;15.40;53.70;;;;;;10100397;28;20066;-62
2021/04/26 15:31:27;;;;;;;4.85;1.67;;;14.40;52.70;;;;;;10101341;28;20681;-60
2021/04/26 15:36:31;;;;;;;5.10;1.63;;;13.00;53.40;;;;;;10098773;28;20050;-63
2021/04/26 15:41:33;;;;;;;8.57;2.10;;;12.70;56.40;;;;;;10102079;28;20070;-63
2021/04/26 15:46:35;;;;;;;7.60;1.60;;;12.90;58.90;;;;;;10100414;28;20138;-63
2021/04/26 15:51:37;;;;;;;7.78;1.75;;;12.70;54.70;;;;;;10100034;28;20110;-62
2021/04/26 15:56:39;;;;;;;6.22;1.63;;;11.90;59.50;;;;;;10101179;28;20149;-62
2021/04/26 16:01:40;;;;;;;10.65;2.10;;;12.80;60.30;;;;;;10103148;28;21749;-63
2021/04/26 16:06:42;;;;;;;13.20;2.47;;;12.20;60.90;;;;;;10099078;28;20055;-63
2021/04/26 16:11:44;;;;;;;7.45;1.95;;;12.20;57.10;;;;;;10097986;28;20802;-62
2021/04/26 16:16:46;;;;;;;11.68;2.47;;;12.10;62.90;;;;;;10092805;28;21913;-63
2021/04/26 16:21:48;;;;;;;5.13;1.45;;;12.00;59.60;;;;;;10096326;28;20153;-62
2021/04/26 16:26:50;;;;;;;7.68;1.70;;;11.80;60.80;;;;;;10097328;28;21823;-61
2021/04/26 16:31:51;;;;;;;11.63;2.60;;;11.80;68.00;;;;;;10098882;28;20901;-62
2021/04/26 16:36:53;;;;;;;6.68;2.00;;;;;;;;;;10093883;28;20137;-62
2021/04/26 16:41:55;;;;;;;11.00;2.50;;;11.40;65.20;;;;;;10096125;28;20077;-63
2021/04/26 16:46:57;;;;;;;8.70;2.77;;;11.30;65.90;;;;;;10097235;28;21673;-62
2021/04/26 16:51:59;;;;;;;9.13;2.50;;;11.00;68.50;;;;;;10095239;28;20234;-63
2021/04/26 16:57:03;;;;;;;8.75;1.80;;;10.90;68.90;;;;;;10116246;28;21909;-63
2021/04/26 17:02:05;;;;;;;5.80;2.75;;;;;;;;;;10102855;28;20310;-63
2021/04/26 17:07:07;;;;;;;7.63;2.38;;;;;;;;;;10102737;28;21196;-63
2021/04/26 17:12:09;;;;;;;11.13;2.30;;;11.20;67.70;;;;;;10105220;28;20078;-64
2021/04/26 17:17:11;;;;;;;3.07;1.90;;;;;;;;;;10104699;28;21281;-63
2021/04/26 17:22:12;;;;;;;12.98;1.98;;;;;;;;;;10104908;28;20039;-64
2021/04/26 17:27:15;;;;;;;4.55;1.60;;;10.90;68.90;;;;;;10105603;28;20074;-64
2021/04/26 17:32:16;;;;;;;5.03;2.07;;;;;;;;;;10101642;28;21717;-64
2021/04/26 17:37:18;;;;;;;6.55;2.65;;;;;;;;;;10102010;28;20089;-62
2021/04/26 17:42:21;;;;;;;7.35;1.98;;;10.80;46.80;;;;;;10101942;28;20267;-62
2021/04/26 17:47:24;;;;;;;3.40;1.85;;;;;;;;;;10104045;28;20120;-61
2021/04/26 17:52:25;;;;;;;5.88;1.95;;;10.80;48.70;;;;;;10102870;28;21793;-62
2021/04/26 17:57:28;;;;;;;8.88;2.20;;;10.50;49.60;;;;;;10102306;28;20098;-61
2021/04/26 18:02:29;;;;;;;4.40;2.23;;;;;;;;;;10105834;28;20806;-60
2021/04/26 18:07:31;;;;;;;3.78;1.92;;;;;;;;;;10103926;28;20047;-63
2021/04/26 18:12:33;;;;;;;6.03;2.17;;;9.90;54.70;;;;;;10102107;28;20746;-60
2021/04/26 18:17:35;;;;;;;2.97;1.57;;;;;;;;;;10102384;28;20492;-60
2021/04/26 18:22:37;;;;;;;5.60;2.42;;;;;;;;;;10102773;28;20055;-60
2021/04/26 18:27:40;;;;;;;3.03;2.00;;;9.70;57.20;;;;;;10104049;28;20043;-60
2021/04/26 18:32:42;;;;;;;4.75;2.22;;;9.40;59.60;;;;;;10100245;28;21008;-61
2021/04/26 18:37:43;;;;;;;5.50;2.13;;;;;;;;;;10099669;28;20066;-62
2021/04/26 18:42:46;;;;;;;3.50;2.25;;;9.10;62.70;;;;;;10102103;28;20089;-64
2021/04/26 18:47:47;;;;;;;7.47;2.60;;;;;;;;;;10104780;28;20054;-61
2021/04/26 18:52:49;;;;;;;3.50;2.50;;;8.70;65.90;;;;;;10102404;28;20055;-62
2021/04/26 18:57:51;;;;;;;5.60;2.45;;;8.50;67.50;;;;;;10101329;28;20050;-63
2021/04/26 19:02:53;;;;;;;8.00;2.37;;;;;;;;;;10100378;28;20161;-64
2021/04/26 19:07:55;;;;;;;8.20;2.67;;;;;;;;;;10100175;28;21066;-63
2021/04/26 19:12:57;;;;;;;10.93;3.10;;;8.40;71.10;;;;;;10103776;28;20496;-62
2021/04/26 19:17:59;;;;;;;5.28;2.35;;;;;;;;;;10101000;28;20310;-62
2021/04/26 19:23:01;;;;;;;3.42;2.00;;;;;;;;;;10098068;28;21766;-63
2021/04/26 19:28:04;;;;;;;3.33;1.98;;;8.10;73.40;;;;;;10096343;28;20078;-63
2021/04/26 19:33:05;;;;;;;9.05;2.70;;;8.00;74.40;;;;;;10100859;28;20047;-64
2021/04/26 19:38:09;;;;;;;7.15;2.30;;;;;;;;;;10100638;28;20059;-65
2021/04/26 19:43:11;;;;;;;20.35;2.40;;;7.90;76.50;;;;;;10100250;28;20181;-64
2021/04/26 19:48:14;;;;;;;3.93;2.30;;;7.80;76.60;;;;;;10099373;28;20694;-65
2021/04/26 19:53:16;;;;;;;8.90;3.33;;;;;;;;;;10098060;28;20070;-62
2021/04/26 19:58:20;;;;;;;7.90;2.50;;;7.60;77.60;;;;;;10100886;28;20089;-63
2021/04/26 20:03:21;;;;;;;7.25;2.72;;;7.00;80.00;;;;;;10098155;28;20067;-62
2021/04/26 20:08:23;;;;;;;12.85;3.60;;;;;;;;;;10101366;28;20102;-63
2021/04/26 20:13:26;;;;;;;10.48;2.90;;;7.40;78.60;;;;;;10095620;28;21688;-63
2021/04/26 20:18:27;;;;;;;9.32;2.92;;;;;;;;;;10095935;28;20145;-63
2021/04/26 20:23:29;;;;;;;10.45;2.75;;;7.20;79.70;;;;;;10095567;28;21796;-63
2021/04/26 20:28:32;;;;;;;9.25;3.70;;;7.10;80.10;;;;;;10095872;28;20902;-63
2021/04/26 20:33:33;;;;;;;4.23;2.90;;;;;;;;;;10093304;28;20086;-63
2021/04/26 20:38:35;;;;;;;3.97;2.28;;;;;;;;;;10094721;28;20170;-64
2021/04/26 20:43:37;;;;;;;13.88;2.72;;;6.90;81.90;;;;;;10092624;28;20924;-63
2021/04/26 20:48:39;;;;;;;10.10;3.22;;;;;;;;;;10095683;28;20054;-63
2021/04/26 20:53:40;;;;;;;8.73;3.10;;;;;;;;;;10092804;28;20807;-62
2021/04/26 20:58:43;;;;;;;4.50;2.50;;;6.70;83.00;;;;;;10097019;28;20193;-63
2021/04/26 21:03:44;;;;;;;5.90;2.25;;;;;;;;;;10094061;28;20117;-64
2021/04/26 21:08:46;;;;;;;5.20;2.25;;;;;;;;;;10095977;28;20046;-63
2021/04/26 21:13:48;;;;;;;7.35;2.50;;;6.40;84.60;;;;;;10099925;28;20784;-63
2021/04/26 21:18:50;;;;;;;4.60;2.30;;;;;;;;;;10095689;28;20126;-63
2021/04/26 21:23:52;;;;;;;9.15;2.67;;;;;;;;;;10094901;28;20105;-64
2021/04/26 21:28:54;;;;;;;5.93;2.30;;;6.30;86.00;;;;;;10092178;28;20112;-62
2021/04/26 21:33:56;;;;;;;5.10;2.47;;;;;;;;;;10092543;28;21543;-63
2021/04/26 21:38:57;;;;;;;4.78;2.58;;;;;;;;;;10095043;28;20046;-62
2021/04/26 21:44:00;;;;;;;12.18;4.45;;;6.10;87.60;;;;;;10085097;28;20065;-62
2021/04/26 21:49:01;;;;;;;9.77;2.70;;;;;;;;;;10092663;28;20088;-63
2021/04/26 21:54:04;;;;;;;6.50;2.65;;;6.10;88.40;;;;;;10099281;28;20075;-63
2021/04/26 21:59:06;;;;;;;4.00;2.70;;;6.10;88.80;;;;;;10102742;28;20145;-62
2021/04/26 22:04:08;;;;;;;7.40;2.90;;;;;;;;;;10101663;28;20053;-62
2021/04/26 22:09:10;;;;;;;3.60;2.20;;;6.10;89.30;;;;;;10102582;28;20058;-63
2021/04/26 22:14:12;;;;;;;13.95;2.95;;;6.10;89.60;;;;;;10101458;28;21349;-61
2021/04/26 22:19:14;;;;;;;4.15;2.40;;;;;;;;;;10100551;28;20177;-64
2021/04/26 22:24:16;;;;;;;4.45;2.85;;;5.90;90.00;;;;;;10100723;28;20049;-62
2021/04/26 22:29:18;;;;;;;3.97;2.70;;;5.80;90.00;;;;;;10102053;28;20039;-64
2021/04/26 22:34:20;;;;;;;12.63;3.42;;;;;;;;;;10098429;28;20614;-63
2021/04/26 22:39:22;;;;;;;10.52;2.90;;;;;;;;;;10100973;28;20145;-62
2021/04/26 22:44:24;;;;;;;6.47;2.92;;;5.70;90.00;;;;;;10099303;28;20043;-62
2021/04/26 22:49:26;;;;;;;7.45;2.80;;;;;;;;;;10100970;28;20256;-61
2021/04/26 22:54:27;;;;;;;6.28;3.08;;;;;;;;;;10100262;28;20834;-63
2021/04/26 22:59:29;;;;;;;5.28;2.72;;;5.60;88.30;;;;;;10098197;28;20129;-62
2021/04/26 23:04:31;;;;;;;3.22;2.42;;;;;;;;;;10100260;28;20051;-63
2021/04/26 23:09:33;;;;;;;5.82;2.67;;;;;;;;;;10100663;28;20059;-63
2021/04/26 23:14:35;;;;;;;5.07;2.53;;;5.50;87.90;;;;;;10096838;28;20161;-62
2021/04/26 23:19:37;;;;;;;3.73;2.40;;;;;;;;;;10095981;28;21119;-62
2021/04/26 23:24:38;;;;;;;5.97;2.60;;;;;;;;;;10093936;28;20105;-63
2021/04/26 23:29:41;;;;;;;3.72;2.20;;;5.30;87.60;;;;;;10097822;28;21932;-63
2021/04/26 23:34:42;;;;;;;14.07;3.75;;;;;;;;;;10097048;28;20156;-62
2021/04/26 23:39:44;;;;;;;3.97;2.67;;;;;;;;;;10096641;28;20047;-63
2021/04/26 23:44:46;;;;;;;5.35;2.40;;;5.10;88.50;;;;;;10098634;28;20117;-62
2021/04/26 23:49:48;;;;;;;7.85;2.92;;;;;;;;;;10098281;28;21753;-63
2021/04/26 23:54:49;;;;;;;9.60;2.47;;;;;;;;;;10098069;28;21836;-63
2021/04/26 23:59:52;;;;;;;4.20;2.35;;;4.80;90.00;;;;;;10098411;28;21238;-62
